createdAt,value
2018-12-23T00:02:18.872Z,99418.00
2018-12-23T00:04:47.758Z,99418.00
2018-12-23T00:07:16.656Z,99418.00
2018-12-23T00:09:45.451Z,99418.00
2018-12-23T00:12:14.270Z,99418.00
2018-12-23T00:14:43.075Z,99418.00
2018-12-23T00:17:11.833Z,99418.00
2018-12-23T00:19:40.827Z,99418.00
2018-12-23T00:22:09.587Z,99418.00
2018-12-23T00:24:38.359Z,99418.00
2018-12-23T00:27:07.148Z,99418.00
2018-12-23T00:29:35.908Z,99418.00
2018-12-23T00:32:04.736Z,99418.00
2018-12-23T00:34:33.505Z,99418.00
2018-12-23T00:37:02.280Z,99418.00
2018-12-23T00:39:31.452Z,99418.00
2018-12-23T00:42:00.224Z,99418.00
2018-12-23T00:44:29.010Z,99418.00
2018-12-23T00:46:58.042Z,99418.00
2018-12-23T00:49:26.897Z,99418.00
2018-12-23T00:51:55.733Z,99418.00
2018-12-23T00:54:24.832Z,99418.00
2018-12-23T00:56:53.659Z,99418.00
2018-12-23T00:59:22.412Z,99418.00
2018-12-23T01:01:51.224Z,99418.00
2018-12-23T01:04:19.958Z,99418.00
2018-12-23T01:06:48.741Z,99418.00
2018-12-23T01:09:17.499Z,99418.00
2018-12-23T01:11:47.335Z,99418.00
2018-12-23T01:14:16.062Z,99418.00
2018-12-23T01:16:44.773Z,99418.00
2018-12-23T01:19:13.522Z,99418.00
2018-12-23T01:21:42.236Z,99418.00
2018-12-23T01:24:11.461Z,99418.00
2018-12-23T01:26:40.159Z,99418.00
2018-12-23T01:29:09.168Z,99783.33
2018-12-23T01:31:37.883Z,99782.44
2018-12-23T01:34:07.879Z,99781.13
2018-12-23T01:36:36.660Z,99782.02
2018-12-23T01:39:06.120Z,99788.52
2018-12-23T01:41:34.759Z,99782.42
2018-12-23T01:44:03.623Z,99783.26
2018-12-23T01:46:33.225Z,99787.05
2018-12-23T01:49:02.076Z,99785.69
2018-12-23T01:51:30.858Z,99797.86
2018-12-23T01:53:59.509Z,99801.89
2018-12-23T01:56:31.458Z,99811.86
2018-12-23T01:59:05.052Z,99806.59
2018-12-23T02:01:33.754Z,99807.06
2018-12-23T02:04:01.237Z,99801.28
2018-12-23T02:06:29.260Z,99803.92
2018-12-23T02:08:56.765Z,99807.34
2018-12-23T02:11:24.331Z,99800.82
2018-12-23T02:13:51.851Z,99805.90
2018-12-23T02:16:22.772Z,99802.22
2018-12-23T02:18:50.629Z,99807.95
2018-12-23T02:21:18.122Z,99805.30
2018-12-23T02:23:45.628Z,99799.45
2018-12-23T02:26:13.102Z,99805.59
2018-12-23T02:28:40.627Z,99813.27
2018-12-23T02:31:08.201Z,99800.41
2018-12-23T02:33:35.785Z,99806.33
2018-12-23T02:36:03.259Z,99804.50
2018-12-23T02:38:30.812Z,99805.97
2018-12-23T02:40:58.288Z,99802.16
2018-12-23T02:43:25.777Z,99802.83
2018-12-23T02:45:53.290Z,99811.88
2018-12-23T02:48:20.842Z,99819.72
2018-12-23T02:50:48.464Z,99818.36
2018-12-23T02:53:15.936Z,99824.47
2018-12-23T02:55:43.531Z,99824.94
2018-12-23T02:58:11.081Z,99819.33
2018-12-23T03:00:38.563Z,99829.37
2018-12-23T03:03:06.101Z,99830.99
2018-12-23T03:05:33.650Z,99833.19
2018-12-23T03:08:01.255Z,99829.34
2018-12-23T03:10:28.801Z,99830.95
2018-12-23T03:12:56.305Z,99833.41
2018-12-23T03:15:24.824Z,99836.88
2018-12-23T03:17:52.317Z,99845.36
2018-12-23T03:20:20.131Z,99842.28
2018-12-23T03:22:47.616Z,99844.81
2018-12-23T03:25:15.102Z,99850.68
2018-12-23T03:27:42.752Z,99846.31
2018-12-23T03:30:10.305Z,99852.03
2018-12-23T03:32:37.844Z,99851.17
2018-12-23T03:35:05.548Z,99862.78
2018-12-23T03:37:33.027Z,99862.53
2018-12-23T03:40:00.708Z,99864.03
2018-12-23T03:42:28.217Z,99865.91
2018-12-23T03:44:55.687Z,99869.98
2018-12-23T03:47:23.222Z,99873.56
2018-12-23T03:49:50.861Z,99864.92
2018-12-23T03:52:18.406Z,99866.22
2018-12-23T03:54:45.957Z,99872.84
2018-12-23T03:57:13.467Z,99873.77
2018-12-23T03:59:40.980Z,99873.78
2018-12-23T04:02:08.672Z,99882.08
2018-12-23T04:04:38.151Z,99878.16
2018-12-23T04:07:05.643Z,99883.38
2018-12-23T04:09:33.383Z,99885.99
2018-12-23T04:12:01.929Z,99887.72
2018-12-23T04:14:29.489Z,99887.30
2018-12-23T04:16:58.421Z,99889.47
2018-12-23T04:19:25.939Z,99899.02
2018-12-23T04:21:53.468Z,99903.38
2018-12-23T04:24:20.963Z,99902.08
2018-12-23T04:26:48.481Z,99908.61
2018-12-23T04:29:15.986Z,99904.28
2018-12-23T04:31:43.596Z,99906.02
2018-12-23T04:34:11.111Z,99906.45
2018-12-23T04:36:38.892Z,99915.59
2018-12-23T04:39:06.495Z,99926.89
2018-12-23T04:41:35.407Z,99926.06
2018-12-23T04:44:02.957Z,99921.73
2018-12-23T04:46:31.495Z,99919.97
2018-12-23T04:48:59.955Z,99923.45
2018-12-23T04:51:27.628Z,99918.23
2018-12-23T04:53:55.304Z,99921.30
2018-12-23T04:56:22.778Z,99935.66
2018-12-23T04:58:50.273Z,99938.27
2018-12-23T05:01:18.700Z,99939.20
2018-12-23T05:03:46.196Z,99950.51
2018-12-23T05:06:13.726Z,99961.38
2018-12-23T05:08:41.209Z,99957.84
2018-12-23T05:11:10.014Z,99962.19
2018-12-23T05:13:37.614Z,99961.30
2018-12-23T05:16:05.207Z,99963.47
2018-12-23T05:18:32.725Z,99966.95
2018-12-23T05:21:00.231Z,99971.29
2018-12-23T05:23:27.773Z,99979.13
2018-12-23T05:25:55.260Z,99989.12
2018-12-23T05:28:22.750Z,99980.84
2018-12-23T05:30:51.248Z,99983.46
2018-12-23T05:33:18.742Z,99992.16
2018-12-23T05:35:46.261Z,99987.80
2018-12-23T05:38:14.721Z,99983.89
2018-12-23T05:40:42.267Z,99977.34
2018-12-23T05:43:09.753Z,99986.04
2018-12-23T05:45:39.243Z,99980.84
2018-12-23T05:48:07.059Z,99988.65
2018-12-23T05:50:34.540Z,99987.77
2018-12-23T05:53:02.046Z,99999.94
2018-12-23T05:55:29.100Z,100009.94
2018-12-23T05:57:56.599Z,100018.22
2018-12-23T06:00:24.164Z,100016.48
2018-12-23T06:02:52.572Z,100018.66
2018-12-23T06:05:20.092Z,100026.91
2018-12-23T06:07:47.607Z,100028.66
2018-12-23T06:10:15.110Z,100038.22
2018-12-23T06:12:43.916Z,100047.36
2018-12-23T06:15:11.409Z,100050.39
2018-12-23T06:17:38.956Z,100055.61
2018-12-23T06:20:16.598Z,100058.20
2018-12-23T06:22:44.088Z,100048.62
2018-12-23T06:25:11.778Z,100042.55
2018-12-23T06:27:40.259Z,100057.70
2018-12-23T06:30:09.751Z,100057.70
2018-12-23T06:32:37.292Z,100052.92
2018-12-23T06:35:04.931Z,100052.91
2018-12-23T06:37:32.583Z,100051.18
2018-12-23T06:40:00.147Z,100055.54
2018-12-23T06:42:31.855Z,100058.20
2018-12-23T06:44:59.405Z,100052.97
2018-12-23T06:47:26.930Z,100041.62
2018-12-23T06:49:54.587Z,100058.14
2018-12-23T06:52:23.049Z,100060.76
2018-12-23T06:54:50.766Z,100062.99
2018-12-23T06:57:18.472Z,100053.86
2018-12-23T06:59:45.963Z,100057.37
2018-12-23T07:02:14.471Z,100066.07
2018-12-23T07:04:42.043Z,100066.09
2018-12-23T07:07:09.693Z,100076.55
2018-12-23T07:09:37.284Z,100076.10
2018-12-23T07:12:05.044Z,100080.02
2018-12-23T07:14:32.783Z,100057.83
2018-12-23T07:17:00.356Z,100058.71
2018-12-23T07:19:28.944Z,100061.29
2018-12-23T07:21:56.440Z,100068.24
2018-12-23T07:24:23.957Z,100073.02
2018-12-23T07:26:51.489Z,100076.86
2018-12-23T07:29:18.980Z,100078.16
2018-12-23T07:31:46.594Z,100080.33
2018-12-23T07:34:14.108Z,100082.92
2018-12-23T07:36:49.639Z,100093.78
2018-12-23T07:39:16.049Z,100102.47
2018-12-23T07:41:43.544Z,100098.95
2018-12-23T07:44:11.253Z,100091.55
2018-12-23T07:46:38.756Z,100103.28
2018-12-23T07:49:06.252Z,100110.66
2018-12-23T07:51:33.775Z,100117.63
2018-12-23T07:54:01.283Z,100118.45
2018-12-23T07:56:30.008Z,100123.20
2018-12-23T07:58:57.492Z,100122.75
2018-12-23T08:01:24.994Z,100111.00
2018-12-23T08:03:53.413Z,100120.96
2018-12-23T08:06:20.909Z,100115.70
2018-12-23T08:08:48.539Z,100113.03
2018-12-23T08:11:16.093Z,100118.62
2018-12-23T08:13:43.655Z,100117.70
2018-12-23T08:16:11.187Z,100113.33
2018-12-23T08:18:38.722Z,100113.68
2018-12-23T08:21:06.362Z,100108.88
2018-12-23T08:23:33.846Z,100105.93
2018-12-23T08:26:01.504Z,100108.02
2018-12-23T08:28:29.024Z,100109.73
2018-12-23T08:30:56.512Z,100120.16
2018-12-23T08:33:24.032Z,100122.77
2018-12-23T08:35:51.534Z,100120.54
2018-12-23T08:38:20.133Z,100127.92
2018-12-23T08:40:47.616Z,100123.56
2018-12-23T08:43:15.128Z,100130.52
2018-12-23T08:45:43.670Z,100110.91
2018-12-23T08:48:11.165Z,100113.02
2018-12-23T08:50:38.879Z,100099.93
2018-12-23T08:53:06.370Z,100094.22
2018-12-23T08:55:33.871Z,100084.16
2018-12-23T08:58:01.409Z,100086.73
2018-12-23T09:00:29.829Z,100086.71
2018-12-23T09:02:58.367Z,100086.22
2018-12-23T09:05:25.955Z,100093.58
2018-12-23T09:07:53.439Z,100097.00
2018-12-23T09:10:20.956Z,100086.08
2018-12-23T09:12:48.463Z,100081.65
2018-12-23T09:15:16.363Z,100090.23
2018-12-23T09:17:44.985Z,100085.80
2018-12-23T09:20:12.510Z,100085.23
2018-12-23T09:22:40.042Z,100089.13
2018-12-23T09:25:07.565Z,100085.16
2018-12-23T09:27:35.121Z,100081.62
2018-12-23T09:30:02.677Z,100084.28
2018-12-23T09:32:30.346Z,100090.82
2018-12-23T09:34:57.836Z,100088.16
2018-12-23T09:37:25.353Z,100085.55
2018-12-23T09:39:52.889Z,100085.97
2018-12-23T09:42:20.377Z,100090.82
2018-12-23T09:44:47.900Z,100088.20
2018-12-23T09:47:15.397Z,100085.13
2018-12-23T09:49:42.992Z,100079.00
2018-12-23T09:58:56.699Z,100059.56
2018-12-23T10:01:24.184Z,100059.46
2018-12-23T10:03:52.700Z,100063.28
2018-12-23T10:06:20.200Z,100064.17
2018-12-23T10:08:47.685Z,100073.28
2018-12-23T10:11:16.210Z,100060.54
2018-12-23T10:13:43.713Z,100054.78
2018-12-23T10:16:12.202Z,100049.83
2018-12-23T10:18:39.730Z,100047.55
2018-12-23T10:21:07.216Z,100038.36
2018-12-23T10:23:34.750Z,100040.98
2018-12-23T10:26:02.268Z,100035.72
2018-12-23T10:28:29.947Z,100028.14
2018-12-23T10:30:57.434Z,100017.55
2018-12-23T10:33:25.000Z,100013.51
2018-12-23T10:35:52.560Z,100008.59
2018-12-23T10:38:20.447Z,100001.60
2018-12-23T10:40:47.983Z,100009.46
2018-12-23T10:43:15.479Z,99999.45
2018-12-23T10:45:43.109Z,99991.77
2018-12-23T10:48:14.012Z,99996.23
2018-12-23T10:50:41.497Z,99989.80
2018-12-23T10:53:09.015Z,99981.17
2018-12-23T10:55:36.546Z,99972.03
2018-12-23T10:58:04.142Z,99971.17
2018-12-23T11:00:31.671Z,99969.89
2018-12-23T11:02:59.206Z,99969.47
2018-12-23T11:05:26.706Z,99962.48
2018-12-23T11:07:54.272Z,99958.05
2018-12-23T11:10:21.761Z,99953.67
2018-12-23T11:12:49.392Z,99949.30
2018-12-23T11:15:16.877Z,99943.64
2018-12-23T11:17:44.471Z,99942.81
2018-12-23T11:20:12.084Z,99948.47
2018-12-23T11:22:40.497Z,99944.12
2018-12-23T11:25:08.057Z,99944.59
2018-12-23T11:27:35.564Z,99935.44
2018-12-23T11:30:06.613Z,99934.93
2018-12-23T11:32:34.409Z,99934.81
2018-12-23T11:35:03.212Z,99930.41
2018-12-23T11:37:30.721Z,99932.07
2018-12-23T11:39:58.256Z,99926.77
2018-12-23T11:42:25.743Z,99926.14
2018-12-23T11:44:53.261Z,99921.77
2018-12-23T11:47:20.752Z,99915.16
2018-12-23T11:49:48.301Z,99910.30
2018-12-23T11:52:15.805Z,99904.52
2018-12-23T11:54:43.339Z,99909.53
2018-12-23T11:57:10.847Z,99903.33
2018-12-23T11:59:38.376Z,99901.89
2018-12-23T12:02:05.876Z,99892.09
2018-12-23T12:04:35.380Z,99890.69
2018-12-23T12:07:03.240Z,99894.20
2018-12-23T12:09:30.747Z,99893.79
2018-12-23T12:11:58.313Z,99885.52
2018-12-23T12:14:25.804Z,99881.09
2018-12-23T12:16:53.338Z,99879.65
2018-12-23T12:19:20.844Z,99880.38
2018-12-23T12:21:48.432Z,99871.05
2018-12-23T12:24:21.867Z,99863.16
2018-12-23T12:26:49.416Z,99860.91
2018-12-23T12:29:16.912Z,99859.59
2018-12-23T12:31:44.439Z,99848.21
2018-12-23T12:34:11.980Z,99847.34
2018-12-23T12:36:39.472Z,99848.21
2018-12-23T12:39:07.412Z,99848.21
2018-12-23T12:41:34.894Z,99848.63
2018-12-23T12:44:02.457Z,99837.69
2018-12-23T12:46:30.001Z,99837.23
2018-12-23T12:48:57.503Z,99835.92
2018-12-23T12:51:25.072Z,99842.89
2018-12-23T13:00:39.293Z,99836.72
2018-12-23T13:03:06.780Z,99835.02
2018-12-23T13:05:36.455Z,99835.02
2018-12-23T13:08:03.961Z,99836.78
2018-12-23T13:10:31.445Z,99830.16
2018-12-23T13:12:58.988Z,99834.61
2018-12-23T13:15:26.548Z,99825.44
2018-12-23T13:17:54.087Z,99823.27
2018-12-23T13:20:21.595Z,99816.26
2018-12-23T13:22:49.162Z,99812.33
2018-12-23T13:25:16.664Z,99812.73
2018-12-23T13:27:45.308Z,99810.49
2018-12-23T13:30:12.831Z,99806.48
2018-12-23T13:32:40.319Z,99807.23
2018-12-23T13:35:07.938Z,99812.99
2018-12-23T13:37:35.459Z,99813.25
2018-12-23T13:40:11.916Z,99826.47
2018-12-23T13:46:59.037Z,99807.61
2018-12-23T13:49:37.202Z,99802.94
2018-12-23T13:52:17.901Z,99806.34
2018-12-23T13:55:04.624Z,99793.27
2018-12-23T13:57:53.137Z,99794.49
2018-12-23T14:00:39.946Z,99786.61
2018-12-23T14:03:11.624Z,99780.87
2018-12-23T14:05:59.811Z,99773.86
2018-12-23T14:08:52.954Z,99770.41
2018-12-23T14:11:54.609Z,99771.77
2018-12-23T14:14:23.322Z,99772.27
2018-12-23T14:16:51.959Z,99780.63
2018-12-23T14:19:20.596Z,99763.20
2018-12-23T14:21:49.206Z,99765.91
2018-12-23T14:24:17.838Z,99763.36
2018-12-23T14:26:46.772Z,99758.61
2018-12-23T14:29:15.344Z,99770.91
2018-12-23T14:31:44.066Z,99768.37
2018-12-23T14:34:13.819Z,99767.55
2018-12-23T14:36:42.519Z,99771.11
2018-12-23T14:39:11.124Z,99760.69
2018-12-23T14:41:39.699Z,99745.44
2018-12-23T14:44:08.329Z,99754.70
2018-12-23T14:46:36.899Z,99755.56
2018-12-23T14:49:05.477Z,99742.45
2018-12-23T14:51:34.101Z,99746.84
2018-12-23T14:54:02.693Z,99742.08
2018-12-23T14:56:31.306Z,99739.91
2018-12-23T14:58:59.924Z,99732.00
2018-12-23T15:04:01.737Z,99716.83
2018-12-23T15:06:31.316Z,99717.41
2018-12-23T15:08:59.949Z,99720.41
2018-12-23T15:11:29.530Z,99716.09
2018-12-23T15:13:58.084Z,99708.67
2018-12-23T15:16:26.801Z,99712.53
2018-12-23T15:18:55.507Z,99709.13
2018-12-23T15:21:24.081Z,99711.87
2018-12-23T15:23:52.691Z,99710.60
2018-12-23T15:26:21.245Z,99705.44
2018-12-23T15:28:50.175Z,99706.34
2018-12-23T15:31:20.200Z,99705.11
2018-12-23T15:33:50.767Z,99702.98
2018-12-23T15:36:19.547Z,99700.36
2018-12-23T15:38:48.120Z,99701.59
2018-12-23T15:41:16.750Z,99700.69
2018-12-23T15:43:45.359Z,99693.63
2018-12-23T15:46:14.092Z,99688.80
2018-12-23T15:48:42.649Z,99682.23
2018-12-23T15:51:11.217Z,99678.22
2018-12-23T15:53:39.959Z,99672.52
2018-12-23T15:56:08.523Z,99667.69
2018-12-23T15:58:38.185Z,99666.37
2018-12-23T16:01:06.745Z,99667.23
2018-12-23T16:03:35.401Z,99660.63
2018-12-23T16:06:04.079Z,99662.39
2018-12-23T16:08:32.670Z,99661.94
2018-12-23T16:11:02.374Z,99652.89
2018-12-23T16:13:31.044Z,99650.27
2018-12-23T16:15:59.682Z,99649.04
2018-12-23T16:18:28.257Z,99650.39
2018-12-23T16:20:56.815Z,99646.50
2018-12-23T16:23:25.443Z,99647.45
2018-12-23T16:25:54.010Z,99645.28
2018-12-23T16:28:22.639Z,99640.15
2018-12-23T16:30:51.290Z,99630.97
2018-12-23T16:33:19.879Z,99632.23
2018-12-23T16:35:48.501Z,99631.02
2018-12-23T16:38:17.075Z,99639.33
2018-12-23T16:40:45.883Z,99630.20
2018-12-23T16:43:14.434Z,99627.08
2018-12-23T16:45:42.994Z,99624.45
2018-12-23T16:48:12.534Z,99632.37
2018-12-23T16:50:41.101Z,99626.67
2018-12-23T16:53:09.711Z,99617.94
2018-12-23T16:55:38.433Z,99612.70
2018-12-23T16:58:07.889Z,99611.80
2018-12-23T17:00:36.509Z,99609.58
2018-12-23T17:03:05.563Z,99606.95
2018-12-23T17:05:34.190Z,99597.78
2018-12-23T17:08:03.012Z,99595.11
2018-12-23T17:10:31.575Z,99593.34
2018-12-23T17:13:00.149Z,99584.66
2018-12-23T17:15:28.890Z,99584.21
2018-12-23T17:17:57.536Z,99590.41
2018-12-23T17:20:26.152Z,99576.88
2018-12-23T17:22:54.722Z,99573.94
2018-12-23T17:25:23.270Z,99575.80
2018-12-23T17:27:51.893Z,99574.12
2018-12-23T17:30:20.484Z,99570.68
2018-12-23T17:32:49.084Z,99573.80
2018-12-23T17:35:17.647Z,99568.64
2018-12-23T17:37:46.227Z,99561.67
2018-12-23T17:40:16.610Z,99558.23
2018-12-23T17:42:45.334Z,99557.70
2018-12-23T17:45:14.111Z,99556.48
2018-12-23T17:47:42.743Z,99556.11
2018-12-23T17:50:11.307Z,99551.27
2018-12-23T17:52:39.915Z,99544.19
2018-12-23T17:55:08.478Z,99548.52
2018-12-23T17:57:37.430Z,99541.61
2018-12-23T18:00:07.972Z,99548.11
2018-12-23T18:02:36.547Z,99542.51
2018-12-23T18:05:05.986Z,99541.28
2018-12-23T18:07:34.621Z,99535.55
2018-12-23T18:10:03.439Z,99530.75
2018-12-23T18:12:32.072Z,99532.20
2018-12-23T18:15:00.651Z,99533.05
2018-12-23T18:17:29.276Z,99518.19
2018-12-23T18:19:57.832Z,99518.59
2018-12-23T18:22:26.496Z,99518.14
2018-12-23T18:24:55.048Z,99527.77
2018-12-23T18:27:23.609Z,99506.63
2018-12-23T18:29:54.966Z,99501.78
2018-12-23T18:32:23.566Z,99506.98
2018-12-23T18:34:52.130Z,99495.95
2018-12-23T18:37:20.869Z,99492.33
2018-12-23T18:39:49.506Z,99489.67
2018-12-23T18:42:18.098Z,99487.05
2018-12-23T18:44:46.992Z,99488.81
2018-12-23T18:47:15.579Z,99480.45
2018-12-23T18:49:44.203Z,99479.62
2018-12-23T18:52:12.868Z,99475.70
2018-12-23T18:54:41.454Z,99470.45
2018-12-23T18:57:10.944Z,99479.22
2018-12-23T18:59:40.882Z,99475.71
2018-12-23T19:02:10.414Z,99471.45
2018-12-23T19:04:39.235Z,99458.43
2018-12-23T19:07:07.978Z,99458.52
2018-12-23T19:09:37.256Z,99458.52
2018-12-23T19:12:29.032Z,99452.47
2018-12-23T19:15:17.083Z,99450.75
2018-12-23T19:17:54.405Z,99445.51
2018-12-23T19:20:54.765Z,99447.31
2018-12-23T19:23:44.263Z,99439.55
2018-12-23T19:26:32.827Z,99432.75
2018-12-23T19:29:34.534Z,99439.90
2018-12-23T19:32:11.960Z,99440.89
2018-12-23T19:35:17.365Z,99440.16
2018-12-23T19:38:07.549Z,99441.06
2018-12-23T19:41:05.089Z,99440.25
2018-12-23T19:43:48.479Z,99429.77
2018-12-23T19:46:26.155Z,99432.84
2018-12-23T19:49:12.785Z,99438.48
2018-12-23T19:51:50.453Z,99435.00
2018-12-23T19:54:33.866Z,99440.25
2018-12-23T19:57:22.374Z,99438.98
2018-12-23T19:59:57.056Z,99427.14
2018-12-23T20:02:28.803Z,99435.00
2018-12-23T20:05:16.620Z,99431.89
2018-12-23T20:08:14.233Z,99426.64
2018-12-23T20:11:05.709Z,99421.86
2018-12-23T20:13:43.275Z,99417.06
2018-12-23T20:16:37.651Z,99416.66
2018-12-23T20:19:21.976Z,99417.97
2018-12-23T20:22:22.512Z,99418.88
2018-12-23T20:25:15.061Z,99400.98
2018-12-23T20:28:10.387Z,99402.34
2018-12-23T20:30:57.424Z,99400.63
2018-12-23T20:33:32.259Z,99401.98
2018-12-23T20:36:37.683Z,99405.91
2018-12-23T20:39:21.289Z,99404.14
2018-12-23T20:42:05.925Z,99402.84
2018-12-23T20:44:40.545Z,99404.59
2018-12-23T20:47:18.025Z,99400.35
2018-12-23T20:50:07.781Z,99390.81
2018-12-23T20:52:54.210Z,99396.14
2018-12-23T20:55:28.483Z,99386.11
2018-12-23T20:58:06.499Z,99385.66
2018-12-23T21:00:55.133Z,99385.30
2018-12-23T21:03:35.985Z,99382.72
2018-12-23T21:06:34.841Z,99379.33
2018-12-23T21:09:23.083Z,99376.76
2018-12-23T21:12:11.627Z,99370.34
2018-12-23T21:15:11.972Z,99360.77
2018-12-23T21:17:55.055Z,99353.94
2018-12-23T21:20:44.951Z,99352.27
2018-12-23T21:23:25.389Z,99351.91
2018-12-23T21:26:13.433Z,99349.28
2018-12-23T21:28:57.144Z,99349.73
2018-12-23T21:31:31.721Z,99348.47
2018-12-23T21:34:22.849Z,99355.02
2018-12-23T21:36:57.460Z,99353.30
2018-12-23T21:39:45.714Z,99359.03
2018-12-23T21:42:24.873Z,99355.56
2018-12-23T21:45:19.032Z,99347.75
2018-12-23T21:48:15.221Z,99347.34
2018-12-23T21:50:53.009Z,99343.13
2018-12-23T21:53:30.949Z,99344.84
2018-12-23T21:56:17.822Z,99349.27
2018-12-23T21:59:01.930Z,99336.31
2018-12-23T22:02:10.009Z,99342.40
2018-12-23T22:04:41.896Z,99340.19
2018-12-23T22:07:28.022Z,99331.52
2018-12-23T22:10:19.048Z,99329.40
2018-12-23T22:13:07.118Z,99313.69
2018-12-23T22:15:35.783Z,99311.52
2018-12-23T22:18:04.355Z,99322.04
2018-12-23T22:20:32.921Z,99319.42
2018-12-23T22:23:01.536Z,99309.85
2018-12-23T22:25:30.109Z,99300.23
2018-12-23T22:27:58.813Z,99293.33
2018-12-23T22:30:27.391Z,99292.10
2018-12-23T22:32:55.963Z,99288.62
2018-12-23T22:35:25.702Z,99289.53
2018-12-23T22:37:54.259Z,99287.36
2018-12-23T22:40:22.955Z,99283.48
2018-12-23T22:42:52.619Z,99277.43
2018-12-23T22:45:21.182Z,99275.67
2018-12-23T22:47:49.744Z,99274.41
2018-12-23T22:50:19.256Z,99267.00
2018-12-23T22:52:47.816Z,99262.63
2018-12-23T22:55:16.484Z,99257.39
2018-12-23T22:57:45.106Z,99250.45
2018-12-23T23:00:16.192Z,99248.73
2018-12-23T23:02:45.696Z,99252.20
2018-12-23T23:05:15.850Z,99242.64
2018-12-23T23:07:44.658Z,99240.47
2018-12-23T23:10:13.231Z,99241.38
2018-12-23T23:12:41.846Z,99227.88
2018-12-23T23:15:10.411Z,99230.09
2018-12-23T23:17:39.165Z,99226.26
2018-12-23T23:20:07.832Z,99226.79
2018-12-23T23:22:36.393Z,99226.38
2018-12-23T23:25:05.043Z,99228.59
2018-12-23T23:27:33.681Z,99219.44
2018-12-23T23:30:02.383Z,99212.03
2018-12-23T23:32:30.944Z,99213.80
2018-12-23T23:34:59.509Z,99202.92
2018-12-23T23:37:29.115Z,99210.77
2018-12-23T23:39:57.676Z,99211.22
2018-12-23T23:42:26.346Z,99207.34
2018-12-23T23:44:55.870Z,99189.93
2018-12-23T23:47:24.441Z,99177.75
2018-12-23T23:49:53.165Z,99186.91
2018-12-23T23:52:21.728Z,99182.17
2018-12-23T23:54:50.281Z,99187.91
2018-12-23T23:57:18.889Z,99189.20
2018-12-23T23:59:47.453Z,99182.27
